sensor_id;sensor_type;location;lat;lon;timestamp;temperature;humidity
58413;DHT22;44209;52.952;6.790;2023-09-18T00:01:08;17.40;99.90
58413;DHT22;44209;52.952;6.790;2023-09-18T00:03:34;17.30;99.90
58413;DHT22;44209;52.952;6.790;2023-09-18T00:06:00;17.40;99.90
58413;DHT22;44209;52.952;6.790;2023-09-18T00:08:25;17.30;99.90
58413;DHT22;44209;52.952;6.790;2023-09-18T00:10:55;17.30;99.90
58413;DHT22;44209;52.952;6.790;2023-09-18T00:13:22;17.20;99.90
58413;DHT22;44209;52.952;6.790;2023-09-18T00:15:48;17.20;99.90
58413;DHT22;44209;52.952;6.790;2023-09-18T00:18:15;17.10;99.90
58413;DHT22;44209;52.952;6.790;2023-09-18T00:20:41;17.20;99.90
58413;DHT22;44209;52.952;6.790;2023-09-18T00:23:08;17.20;99.90
58413;DHT22;44209;52.952;6.790;2023-09-18T00:25:34;17.20;99.90
58413;DHT22;44209;52.952;6.790;2023-09-18T00:28:00;17.20;99.90
58413;DHT22;44209;52.952;6.790;2023-09-18T00:30:26;17.10;99.90
58413;DHT22;44209;52.952;6.790;2023-09-18T00:32:51;17.10;99.90
58413;DHT22;44209;52.952;6.790;2023-09-18T00:35:17;17.10;99.90
58413;DHT22;44209;52.952;6.790;2023-09-18T00:37:43;17.20;99.90
58413;DHT22;44209;52.952;6.790;2023-09-18T00:40:09;17.10;99.90
58413;DHT22;44209;52.952;6.790;2023-09-18T00:42:36;17.10;99.90
58413;DHT22;44209;52.952;6.790;2023-09-18T00:45:02;17.20;99.90
58413;DHT22;44209;52.952;6.790;2023-09-18T00:47:28;17.10;99.90
58413;DHT22;44209;52.952;6.790;2023-09-18T00:49:54;17.20;99.90
58413;DHT22;44209;52.952;6.790;2023-09-18T00:52:22;17.10;99.90
58413;DHT22;44209;52.952;6.790;2023-09-18T00:54:48;17.10;99.90
58413;DHT22;44209;52.952;6.790;2023-09-18T00:57:15;17.10;99.90
58413;DHT22;44209;52.952;6.790;2023-09-18T00:59:41;17.10;99.90
58413;DHT22;44209;52.952;6.790;2023-09-18T01:02:07;17.20;99.90
58413;DHT22;44209;52.952;6.790;2023-09-18T01:04:34;17.20;99.90
58413;DHT22;44209;52.952;6.790;2023-09-18T01:07:00;17.20;99.90
58413;DHT22;44209;52.952;6.790;2023-09-18T01:09:30;17.20;99.90
58413;DHT22;44209;52.952;6.790;2023-09-18T01:12:20;17.20;99.90
58413;DHT22;44209;52.952;6.790;2023-09-18T01:15:30;17.20;99.90
58413;DHT22;44209;52.952;6.790;2023-09-18T01:17:46;17.20;99.90
58413;DHT22;44209;52.952;6.790;2023-09-18T01:20:12;17.30;99.90
58413;DHT22;44209;52.952;6.790;2023-09-18T01:22:44;17.20;99.90
58413;DHT22;44209;52.952;6.790;2023-09-18T01:25:17;17.30;99.90
58413;DHT22;44209;52.952;6.790;2023-09-18T01:27:43;17.30;99.90
58413;DHT22;44209;52.952;6.790;2023-09-18T01:30:09;17.30;99.90
58413;DHT22;44209;52.952;6.790;2023-09-18T01:32:36;17.30;99.90
58413;DHT22;44209;52.952;6.790;2023-09-18T01:35:04;17.30;99.90
58413;DHT22;44209;52.952;6.790;2023-09-18T01:37:33;17.30;99.90
58413;DHT22;44209;52.952;6.790;2023-09-18T01:40:02;17.30;99.90
58413;DHT22;44209;52.952;6.790;2023-09-18T01:42:32;17.40;99.90
58413;DHT22;44209;52.952;6.790;2023-09-18T01:44:59;17.40;99.90
58413;DHT22;44209;52.952;6.790;2023-09-18T01:47:25;17.40;99.90
58413;DHT22;44209;52.952;6.790;2023-09-18T01:49:54;17.30;99.90
58413;DHT22;44209;52.952;6.790;2023-09-18T01:52:20;17.30;99.90
58413;DHT22;44209;52.952;6.790;2023-09-18T01:54:45;17.30;99.90
58413;DHT22;44209;52.952;6.790;2023-09-18T01:57:11;17.30;99.90
58413;DHT22;44209;52.952;6.790;2023-09-18T01:59:38;17.20;99.90
58413;DHT22;44209;52.952;6.790;2023-09-18T02:02:05;17.30;99.90
58413;DHT22;44209;52.952;6.790;2023-09-18T02:04:33;17.30;99.90
58413;DHT22;44209;52.952;6.790;2023-09-18T02:06:59;17.20;99.90
58413;DHT22;44209;52.952;6.790;2023-09-18T02:09:26;17.20;99.90
58413;DHT22;44209;52.952;6.790;2023-09-18T02:11:51;17.20;99.90
58413;DHT22;44209;52.952;6.790;2023-09-18T02:14:17;17.30;99.90
58413;DHT22;44209;52.952;6.790;2023-09-18T02:16:43;17.40;99.90
58413;DHT22;44209;52.952;6.790;2023-09-18T02:19:11;17.30;99.90
58413;DHT22;44209;52.952;6.790;2023-09-18T02:21:38;17.40;99.90
58413;DHT22;44209;52.952;6.790;2023-09-18T02:24:04;17.40;99.90
58413;DHT22;44209;52.952;6.790;2023-09-18T02:26:30;17.40;99.90
58413;DHT22;44209;52.952;6.790;2023-09-18T02:28:59;17.40;99.90
58413;DHT22;44209;52.952;6.790;2023-09-18T02:31:25;17.50;99.90
58413;DHT22;44209;52.952;6.790;2023-09-18T02:33:50;17.50;99.90
58413;DHT22;44209;52.952;6.790;2023-09-18T02:36:16;17.50;99.90
58413;DHT22;44209;52.952;6.790;2023-09-18T02:38:42;17.50;99.90
58413;DHT22;44209;52.952;6.790;2023-09-18T02:41:09;17.50;99.90
58413;DHT22;44209;52.952;6.790;2023-09-18T02:43:35;17.50;99.90
58413;DHT22;44209;52.952;6.790;2023-09-18T02:46:04;17.50;99.90
58413;DHT22;44209;52.952;6.790;2023-09-18T02:48:31;17.50;99.90
58413;DHT22;44209;52.952;6.790;2023-09-18T02:50:58;17.50;99.90
58413;DHT22;44209;52.952;6.790;2023-09-18T02:53:24;17.50;99.90
58413;DHT22;44209;52.952;6.790;2023-09-18T02:55:52;17.50;99.90
58413;DHT22;44209;52.952;6.790;2023-09-18T02:58:18;17.50;99.90
58413;DHT22;44209;52.952;6.790;2023-09-18T03:00:46;17.50;99.90
58413;DHT22;44209;52.952;6.790;2023-09-18T03:03:12;17.50;99.90
58413;DHT22;44209;52.952;6.790;2023-09-18T03:05:39;17.50;99.90
58413;DHT22;44209;52.952;6.790;2023-09-18T03:08:05;17.50;99.90
58413;DHT22;44209;52.952;6.790;2023-09-18T03:10:35;17.50;99.90
58413;DHT22;44209;52.952;6.790;2023-09-18T03:13:02;17.50;99.90
58413;DHT22;44209;52.952;6.790;2023-09-18T03:15:28;17.50;99.90
58413;DHT22;44209;52.952;6.790;2023-09-18T03:17:54;17.50;99.90
58413;DHT22;44209;52.952;6.790;2023-09-18T03:20:24;17.50;99.90
58413;DHT22;44209;52.952;6.790;2023-09-18T03:22:58;17.50;99.90
58413;DHT22;44209;52.952;6.790;2023-09-18T03:25:24;17.50;99.90
58413;DHT22;44209;52.952;6.790;2023-09-18T03:27:55;17.50;99.90
58413;DHT22;44209;52.952;6.790;2023-09-18T03:30:23;17.50;99.90
58413;DHT22;44209;52.952;6.790;2023-09-18T03:32:49;17.50;99.90
58413;DHT22;44209;52.952;6.790;2023-09-18T03:35:15;17.50;99.90
58413;DHT22;44209;52.952;6.790;2023-09-18T03:37:45;17.50;99.90
58413;DHT22;44209;52.952;6.790;2023-09-18T03:40:11;17.60;99.90
58413;DHT22;44209;52.952;6.790;2023-09-18T03:42:37;17.60;99.90
58413;DHT22;44209;52.952;6.790;2023-09-18T03:45:05;17.60;99.90
58413;DHT22;44209;52.952;6.790;2023-09-18T03:47:33;17.60;99.90
58413;DHT22;44209;52.952;6.790;2023-09-18T03:49:59;17.60;99.90
58413;DHT22;44209;52.952;6.790;2023-09-18T03:52:24;17.60;99.90
58413;DHT22;44209;52.952;6.790;2023-09-18T03:54:50;17.60;99.90
58413;DHT22;44209;52.952;6.790;2023-09-18T03:57:16;17.60;99.90
58413;DHT22;44209;52.952;6.790;2023-09-18T03:59:42;17.60;99.90
58413;DHT22;44209;52.952;6.790;2023-09-18T04:02:08;17.60;99.90
58413;DHT22;44209;52.952;6.790;2023-09-18T04:04:33;17.60;99.90
58413;DHT22;44209;52.952;6.790;2023-09-18T04:06:59;17.60;99.90
58413;DHT22;44209;52.952;6.790;2023-09-18T04:09:25;17.70;99.90
58413;DHT22;44209;52.952;6.790;2023-09-18T04:11:51;17.70;99.90
58413;DHT22;44209;52.952;6.790;2023-09-18T04:14:17;17.60;99.90
58413;DHT22;44209;52.952;6.790;2023-09-18T04:16:43;17.70;99.90
58413;DHT22;44209;52.952;6.790;2023-09-18T04:19:09;17.70;99.90
58413;DHT22;44209;52.952;6.790;2023-09-18T04:21:35;17.70;99.90
58413;DHT22;44209;52.952;6.790;2023-09-18T04:24:01;17.70;99.90
58413;DHT22;44209;52.952;6.790;2023-09-18T04:26:28;17.70;99.90
58413;DHT22;44209;52.952;6.790;2023-09-18T04:28:59;17.70;99.90
58413;DHT22;44209;52.952;6.790;2023-09-18T04:31:25;17.70;99.90
58413;DHT22;44209;52.952;6.790;2023-09-18T04:33:51;17.70;99.90
58413;DHT22;44209;52.952;6.790;2023-09-18T04:36:16;17.70;99.90
58413;DHT22;44209;52.952;6.790;2023-09-18T04:38:42;17.70;99.90
58413;DHT22;44209;52.952;6.790;2023-09-18T04:41:08;17.70;99.90
58413;DHT22;44209;52.952;6.790;2023-09-18T04:43:36;17.70;99.90
58413;DHT22;44209;52.952;6.790;2023-09-18T04:46:04;17.70;99.90
58413;DHT22;44209;52.952;6.790;2023-09-18T04:48:34;17.70;99.90
58413;DHT22;44209;52.952;6.790;2023-09-18T04:51:00;17.70;99.90
58413;DHT22;44209;52.952;6.790;2023-09-18T04:53:30;17.70;99.90
58413;DHT22;44209;52.952;6.790;2023-09-18T04:55:56;17.70;99.90
58413;DHT22;44209;52.952;6.790;2023-09-18T04:58:22;17.70;99.90
58413;DHT22;44209;52.952;6.790;2023-09-18T05:00:54;17.80;99.90
58413;DHT22;44209;52.952;6.790;2023-09-18T05:03:20;17.80;99.90
58413;DHT22;44209;52.952;6.790;2023-09-18T05:05:46;17.80;99.90
58413;DHT22;44209;52.952;6.790;2023-09-18T05:08:12;17.80;99.90
58413;DHT22;44209;52.952;6.790;2023-09-18T05:10:38;17.80;99.90
58413;DHT22;44209;52.952;6.790;2023-09-18T05:13:04;17.80;99.90
58413;DHT22;44209;52.952;6.790;2023-09-18T05:15:30;17.80;99.90
58413;DHT22;44209;52.952;6.790;2023-09-18T05:17:57;17.80;99.90
58413;DHT22;44209;52.952;6.790;2023-09-18T05:20:27;17.90;99.90
58413;DHT22;44209;52.952;6.790;2023-09-18T05:22:55;17.80;99.90
58413;DHT22;44209;52.952;6.790;2023-09-18T05:25:22;17.80;99.90
58413;DHT22;44209;52.952;6.790;2023-09-18T05:27:50;17.80;99.90
58413;DHT22;44209;52.952;6.790;2023-09-18T05:30:25;17.80;99.90
58413;DHT22;44209;52.952;6.790;2023-09-18T05:32:54;17.80;99.90
58413;DHT22;44209;52.952;6.790;2023-09-18T05:35:20;17.80;99.90
58413;DHT22;44209;52.952;6.790;2023-09-18T05:37:47;17.80;99.90
58413;DHT22;44209;52.952;6.790;2023-09-18T05:40:13;17.80;99.90
58413;DHT22;44209;52.952;6.790;2023-09-18T05:42:41;17.80;99.90
58413;DHT22;44209;52.952;6.790;2023-09-18T05:45:11;17.80;99.90
58413;DHT22;44209;52.952;6.790;2023-09-18T05:47:37;17.80;99.90
58413;DHT22;44209;52.952;6.790;2023-09-18T05:50:11;17.90;99.90
58413;DHT22;44209;52.952;6.790;2023-09-18T05:52:47;17.90;99.90
58413;DHT22;44209;52.952;6.790;2023-09-18T05:55:14;17.90;99.90
58413;DHT22;44209;52.952;6.790;2023-09-18T05:57:40;17.90;99.90
58413;DHT22;44209;52.952;6.790;2023-09-18T06:00:06;18.00;99.90
58413;DHT22;44209;52.952;6.790;2023-09-18T06:02:32;18.00;99.90
58413;DHT22;44209;52.952;6.790;2023-09-18T06:04:59;18.00;99.90
58413;DHT22;44209;52.952;6.790;2023-09-18T06:07:26;18.10;99.90
58413;DHT22;44209;52.952;6.790;2023-09-18T06:09:52;18.10;99.90
58413;DHT22;44209;52.952;6.790;2023-09-18T06:12:18;18.10;99.90
58413;DHT22;44209;52.952;6.790;2023-09-18T06:14:44;18.20;99.90
58413;DHT22;44209;52.952;6.790;2023-09-18T06:17:12;18.30;99.90
58413;DHT22;44209;52.952;6.790;2023-09-18T06:19:37;18.40;99.90
58413;DHT22;44209;52.952;6.790;2023-09-18T06:22:04;18.40;99.90
58413;DHT22;44209;52.952;6.790;2023-09-18T06:24:30;18.40;99.90
58413;DHT22;44209;52.952;6.790;2023-09-18T06:26:56;18.50;99.90
58413;DHT22;44209;52.952;6.790;2023-09-18T06:29:21;18.50;99.90
58413;DHT22;44209;52.952;6.790;2023-09-18T06:31:47;18.60;99.90
58413;DHT22;44209;52.952;6.790;2023-09-18T06:34:13;18.60;99.90
58413;DHT22;44209;52.952;6.790;2023-09-18T06:36:39;18.60;99.90
58413;DHT22;44209;52.952;6.790;2023-09-18T06:39:04;18.60;99.90
58413;DHT22;44209;52.952;6.790;2023-09-18T06:41:30;18.60;99.90
58413;DHT22;44209;52.952;6.790;2023-09-18T06:43:56;18.60;99.90
58413;DHT22;44209;52.952;6.790;2023-09-18T06:46:22;18.60;99.90
58413;DHT22;44209;52.952;6.790;2023-09-18T06:48:48;18.60;99.90
58413;DHT22;44209;52.952;6.790;2023-09-18T06:51:16;18.60;99.90
58413;DHT22;44209;52.952;6.790;2023-09-18T06:53:44;18.60;99.90
58413;DHT22;44209;52.952;6.790;2023-09-18T06:56:10;18.60;99.90
58413;DHT22;44209;52.952;6.790;2023-09-18T06:58:36;18.60;99.90
58413;DHT22;44209;52.952;6.790;2023-09-18T07:01:02;18.50;99.90
58413;DHT22;44209;52.952;6.790;2023-09-18T07:03:28;18.50;99.90
58413;DHT22;44209;52.952;6.790;2023-09-18T07:05:54;18.50;99.90
58413;DHT22;44209;52.952;6.790;2023-09-18T07:08:20;18.50;99.90
58413;DHT22;44209;52.952;6.790;2023-09-18T07:10:51;18.40;99.90
58413;DHT22;44209;52.952;6.790;2023-09-18T07:13:17;18.50;99.90
58413;DHT22;44209;52.952;6.790;2023-09-18T07:15:43;18.50;99.90
58413;DHT22;44209;52.952;6.790;2023-09-18T07:18:10;18.50;99.90
58413;DHT22;44209;52.952;6.790;2023-09-18T07:20:40;18.50;99.90
58413;DHT22;44209;52.952;6.790;2023-09-18T07:23:06;18.60;99.90
58413;DHT22;44209;52.952;6.790;2023-09-18T07:25:31;18.50;99.90
58413;DHT22;44209;52.952;6.790;2023-09-18T07:27:57;18.50;99.90
58413;DHT22;44209;52.952;6.790;2023-09-18T07:30:26;18.50;99.90
58413;DHT22;44209;52.952;6.790;2023-09-18T07:32:55;18.50;99.90
58413;DHT22;44209;52.952;6.790;2023-09-18T07:35:24;18.50;99.90
58413;DHT22;44209;52.952;6.790;2023-09-18T07:37:51;18.50;99.90
58413;DHT22;44209;52.952;6.790;2023-09-18T07:40:16;18.50;99.90
58413;DHT22;44209;52.952;6.790;2023-09-18T07:42:42;18.50;99.90
58413;DHT22;44209;52.952;6.790;2023-09-18T07:45:11;18.60;99.90
58413;DHT22;44209;52.952;6.790;2023-09-18T07:47:37;18.60;99.90
58413;DHT22;44209;52.952;6.790;2023-09-18T07:50:03;18.60;99.90
58413;DHT22;44209;52.952;6.790;2023-09-18T07:52:29;18.60;99.90
58413;DHT22;44209;52.952;6.790;2023-09-18T07:54:57;18.70;99.90
58413;DHT22;44209;52.952;6.790;2023-09-18T07:57:26;18.80;99.90
58413;DHT22;44209;52.952;6.790;2023-09-18T07:59:55;18.80;99.90
58413;DHT22;44209;52.952;6.790;2023-09-18T08:02:21;18.90;99.90
58413;DHT22;44209;52.952;6.790;2023-09-18T08:04:48;18.90;99.90
58413;DHT22;44209;52.952;6.790;2023-09-18T08:07:14;18.90;99.90
58413;DHT22;44209;52.952;6.790;2023-09-18T08:09:40;18.90;99.90
58413;DHT22;44209;52.952;6.790;2023-09-18T08:12:06;19.00;99.90
58413;DHT22;44209;52.952;6.790;2023-09-18T08:14:32;19.00;99.90
58413;DHT22;44209;52.952;6.790;2023-09-18T08:17:02;19.00;99.90
58413;DHT22;44209;52.952;6.790;2023-09-18T08:19:30;19.00;99.90
58413;DHT22;44209;52.952;6.790;2023-09-18T08:21:58;19.00;99.90
58413;DHT22;44209;52.952;6.790;2023-09-18T08:24:25;19.00;99.90
58413;DHT22;44209;52.952;6.790;2023-09-18T08:26:51;19.10;99.90
58413;DHT22;44209;52.952;6.790;2023-09-18T08:29:18;19.00;99.90
58413;DHT22;44209;52.952;6.790;2023-09-18T08:31:44;19.00;99.90
58413;DHT22;44209;52.952;6.790;2023-09-18T08:34:09;19.00;99.90
58413;DHT22;44209;52.952;6.790;2023-09-18T08:36:35;19.00;99.90
58413;DHT22;44209;52.952;6.790;2023-09-18T08:39:01;19.00;99.90
58413;DHT22;44209;52.952;6.790;2023-09-18T08:41:29;18.90;99.90
58413;DHT22;44209;52.952;6.790;2023-09-18T08:44:00;18.90;99.90
58413;DHT22;44209;52.952;6.790;2023-09-18T08:46:27;18.90;99.90
58413;DHT22;44209;52.952;6.790;2023-09-18T08:48:53;18.90;99.90
58413;DHT22;44209;52.952;6.790;2023-09-18T08:51:21;19.00;99.90
58413;DHT22;44209;52.952;6.790;2023-09-18T08:53:47;19.00;99.90
58413;DHT22;44209;52.952;6.790;2023-09-18T08:56:13;19.00;99.90
58413;DHT22;44209;52.952;6.790;2023-09-18T08:58:40;19.00;99.90
58413;DHT22;44209;52.952;6.790;2023-09-18T09:01:11;19.00;99.90
58413;DHT22;44209;52.952;6.790;2023-09-18T09:03:41;19.00;99.90
58413;DHT22;44209;52.952;6.790;2023-09-18T09:06:08;19.00;99.90
58413;DHT22;44209;52.952;6.790;2023-09-18T09:08:35;19.10;99.90
58413;DHT22;44209;52.952;6.790;2023-09-18T09:11:01;19.00;99.90
58413;DHT22;44209;52.952;6.790;2023-09-18T09:13:27;19.10;99.90
58413;DHT22;44209;52.952;6.790;2023-09-18T09:15:54;19.10;99.90
58413;DHT22;44209;52.952;6.790;2023-09-18T09:18:22;19.10;99.90
58413;DHT22;44209;52.952;6.790;2023-09-18T09:21:00;19.10;99.90
58413;DHT22;44209;52.952;6.790;2023-09-18T09:24:13;19.10;99.90
58413;DHT22;44209;52.952;6.790;2023-09-18T09:26:18;19.10;99.90
58413;DHT22;44209;52.952;6.790;2023-09-18T09:28:44;19.10;99.90
58413;DHT22;44209;52.952;6.790;2023-09-18T09:31:11;19.20;99.90
58413;DHT22;44209;52.952;6.790;2023-09-18T09:33:37;19.20;99.90
58413;DHT22;44209;52.952;6.790;2023-09-18T09:36:06;19.20;99.90
58413;DHT22;44209;52.952;6.790;2023-09-18T09:38:34;19.30;99.90
58413;DHT22;44209;52.952;6.790;2023-09-18T09:41:04;19.30;99.90
58413;DHT22;44209;52.952;6.790;2023-09-18T09:43:35;19.40;99.90
58413;DHT22;44209;52.952;6.790;2023-09-18T09:46:01;19.40;99.90
58413;DHT22;44209;52.952;6.790;2023-09-18T09:48:28;19.50;99.90
58413;DHT22;44209;52.952;6.790;2023-09-18T09:50:58;19.50;99.90
58413;DHT22;44209;52.952;6.790;2023-09-18T09:53:47;19.70;99.90
58413;DHT22;44209;52.952;6.790;2023-09-18T09:56:14;19.90;99.90
58413;DHT22;44209;52.952;6.790;2023-09-18T09:58:40;19.90;99.90
58413;DHT22;44209;52.952;6.790;2023-09-18T10:01:12;20.00;99.90
58413;DHT22;44209;52.952;6.790;2023-09-18T10:03:43;20.00;99.90
58413;DHT22;44209;52.952;6.790;2023-09-18T10:06:10;20.10;99.90
58413;DHT22;44209;52.952;6.790;2023-09-18T10:08:40;20.10;99.90
58413;DHT22;44209;52.952;6.790;2023-09-18T10:11:07;20.10;99.90
58413;DHT22;44209;52.952;6.790;2023-09-18T10:14:09;20.20;99.90
58413;DHT22;44209;52.952;6.790;2023-09-18T10:16:41;20.20;99.90
58413;DHT22;44209;52.952;6.790;2023-09-18T10:22:00;20.30;99.90
58413;DHT22;44209;52.952;6.790;2023-09-18T10:24:34;20.20;99.90
58413;DHT22;44209;52.952;6.790;2023-09-18T10:27:05;20.30;99.90
58413;DHT22;44209;52.952;6.790;2023-09-18T10:29:34;20.30;99.90
58413;DHT22;44209;52.952;6.790;2023-09-18T10:32:04;20.30;99.90
58413;DHT22;44209;52.952;6.790;2023-09-18T10:34:30;20.40;99.90
58413;DHT22;44209;52.952;6.790;2023-09-18T10:37:00;20.50;99.90
58413;DHT22;44209;52.952;6.790;2023-09-18T10:39:26;20.50;99.90
58413;DHT22;44209;52.952;6.790;2023-09-18T10:41:56;20.60;99.90
58413;DHT22;44209;52.952;6.790;2023-09-18T10:44:28;20.60;99.90
58413;DHT22;44209;52.952;6.790;2023-09-18T10:46:54;20.70;99.90
58413;DHT22;44209;52.952;6.790;2023-09-18T10:49:21;20.80;99.90
58413;DHT22;44209;52.952;6.790;2023-09-18T10:51:48;20.90;99.90
58413;DHT22;44209;52.952;6.790;2023-09-18T10:54:21;21.00;99.90
58413;DHT22;44209;52.952;6.790;2023-09-18T10:56:47;21.20;99.90
58413;DHT22;44209;52.952;6.790;2023-09-18T10:59:14;21.30;99.90
58413;DHT22;44209;52.952;6.790;2023-09-18T11:01:40;21.40;99.90
58413;DHT22;44209;52.952;6.790;2023-09-18T11:04:07;21.50;99.90
58413;DHT22;44209;52.952;6.790;2023-09-18T11:11:46;21.50;99.90
58413;DHT22;44209;52.952;6.790;2023-09-18T11:14:14;21.50;99.90
58413;DHT22;44209;52.952;6.790;2023-09-18T11:16:43;21.50;99.90
58413;DHT22;44209;52.952;6.790;2023-09-18T11:19:11;21.40;99.90
58413;DHT22;44209;52.952;6.790;2023-09-18T11:21:37;21.40;99.90
58413;DHT22;44209;52.952;6.790;2023-09-18T11:24:20;21.30;99.90
58413;DHT22;44209;52.952;6.790;2023-09-18T11:26:48;21.40;99.90
58413;DHT22;44209;52.952;6.790;2023-09-18T11:29:21;21.60;99.90
58413;DHT22;44209;52.952;6.790;2023-09-18T11:31:55;21.70;99.90
58413;DHT22;44209;52.952;6.790;2023-09-18T11:34:29;21.70;99.90
58413;DHT22;44209;52.952;6.790;2023-09-18T11:37:01;21.60;99.90
58413;DHT22;44209;52.952;6.790;2023-09-18T11:39:38;21.70;99.90
58413;DHT22;44209;52.952;6.790;2023-09-18T11:42:19;22.00;99.90
58413;DHT22;44209;52.952;6.790;2023-09-18T11:44:45;22.10;99.90
58413;DHT22;44209;52.952;6.790;2023-09-18T11:47:16;22.30;99.90
58413;DHT22;44209;52.952;6.790;2023-09-18T11:49:59;22.30;99.90
58413;DHT22;44209;52.952;6.790;2023-09-18T11:52:27;22.30;99.90
58413;DHT22;44209;52.952;6.790;2023-09-18T11:54:55;22.30;99.90
58413;DHT22;44209;52.952;6.790;2023-09-18T11:57:21;22.30;99.90
58413;DHT22;44209;52.952;6.790;2023-09-18T11:59:47;22.30;99.90
58413;DHT22;44209;52.952;6.790;2023-09-18T12:02:30;22.30;99.90
58413;DHT22;44209;52.952;6.790;2023-09-18T12:05:11;22.20;99.90
58413;DHT22;44209;52.952;6.790;2023-09-18T12:07:39;22.00;99.90
58413;DHT22;44209;52.952;6.790;2023-09-18T12:10:09;21.80;99.90
58413;DHT22;44209;52.952;6.790;2023-09-18T12:12:35;21.70;99.90
58413;DHT22;44209;52.952;6.790;2023-09-18T12:15:02;21.60;99.90
58413;DHT22;44209;52.952;6.790;2023-09-18T12:17:28;21.50;99.90
58413;DHT22;44209;52.952;6.790;2023-09-18T12:19:55;21.40;99.90
58413;DHT22;44209;52.952;6.790;2023-09-18T12:22:28;21.40;99.90
58413;DHT22;44209;52.952;6.790;2023-09-18T12:25:07;21.30;99.90
58413;DHT22;44209;52.952;6.790;2023-09-18T12:27:36;21.30;99.90
58413;DHT22;44209;52.952;6.790;2023-09-18T12:30:03;21.20;99.90
58413;DHT22;44209;52.952;6.790;2023-09-18T12:32:30;21.00;99.90
58413;DHT22;44209;52.952;6.790;2023-09-18T12:34:58;21.00;99.90
58413;DHT22;44209;52.952;6.790;2023-09-18T12:37:25;21.00;99.90
58413;DHT22;44209;52.952;6.790;2023-09-18T12:39:50;21.10;99.90
58413;DHT22;44209;52.952;6.790;2023-09-18T12:42:20;21.30;99.90
58413;DHT22;44209;52.952;6.790;2023-09-18T12:44:47;21.50;99.90
58413;DHT22;44209;52.952;6.790;2023-09-18T12:47:14;21.60;99.90
58413;DHT22;44209;52.952;6.790;2023-09-18T12:49:40;21.60;99.90
58413;DHT22;44209;52.952;6.790;2023-09-18T12:52:06;21.80;99.90
58413;DHT22;44209;52.952;6.790;2023-09-18T12:54:42;21.80;99.90
58413;DHT22;44209;52.952;6.790;2023-09-18T12:57:14;21.90;99.90
58413;DHT22;44209;52.952;6.790;2023-09-18T12:59:40;22.00;99.90
58413;DHT22;44209;52.952;6.790;2023-09-18T13:02:06;22.10;99.90
58413;DHT22;44209;52.952;6.790;2023-09-18T13:04:36;22.10;99.90
58413;DHT22;44209;52.952;6.790;2023-09-18T13:09:29;22.20;99.90
58413;DHT22;44209;52.952;6.790;2023-09-18T13:11:58;22.20;99.90
58413;DHT22;44209;52.952;6.790;2023-09-18T13:14:24;22.30;99.90
58413;DHT22;44209;52.952;6.790;2023-09-18T13:16:50;22.20;99.90
58413;DHT22;44209;52.952;6.790;2023-09-18T13:19:17;22.10;99.90
58413;DHT22;44209;52.952;6.790;2023-09-18T13:21:50;21.90;99.90
58413;DHT22;44209;52.952;6.790;2023-09-18T13:24:29;21.80;99.90
58413;DHT22;44209;52.952;6.790;2023-09-18T13:26:56;22.00;99.90
58413;DHT22;44209;52.952;6.790;2023-09-18T13:29:23;22.20;99.90
58413;DHT22;44209;52.952;6.790;2023-09-18T13:31:50;22.30;99.90
58413;DHT22;44209;52.952;6.790;2023-09-18T13:34:16;22.30;99.90
58413;DHT22;44209;52.952;6.790;2023-09-18T13:36:45;22.40;99.90
58413;DHT22;44209;52.952;6.790;2023-09-18T13:39:12;22.50;99.90
58413;DHT22;44209;52.952;6.790;2023-09-18T13:41:39;22.60;99.90
58413;DHT22;44209;52.952;6.790;2023-09-18T13:44:07;22.60;99.90
58413;DHT22;44209;52.952;6.790;2023-09-18T13:46:33;22.60;99.90
58413;DHT22;44209;52.952;6.790;2023-09-18T13:49:05;22.80;99.90
58413;DHT22;44209;52.952;6.790;2023-09-18T13:51:32;22.90;99.90
58413;DHT22;44209;52.952;6.790;2023-09-18T13:53:58;23.00;99.90
58413;DHT22;44209;52.952;6.790;2023-09-18T13:56:24;23.10;99.90
58413;DHT22;44209;52.952;6.790;2023-09-18T13:58:54;22.90;99.90
58413;DHT22;44209;52.952;6.790;2023-09-18T14:01:24;22.80;99.90
58413;DHT22;44209;52.952;6.790;2023-09-18T14:03:51;22.60;99.90
58413;DHT22;44209;52.952;6.790;2023-09-18T14:06:17;22.50;99.90
58413;DHT22;44209;52.952;6.790;2023-09-18T14:08:42;22.50;99.90
58413;DHT22;44209;52.952;6.790;2023-09-18T14:11:08;22.50;99.90
58413;DHT22;44209;52.952;6.790;2023-09-18T14:13:34;22.70;99.90
58413;DHT22;44209;52.952;6.790;2023-09-18T14:15:59;22.80;99.90
58413;DHT22;44209;52.952;6.790;2023-09-18T14:18:29;22.80;99.90
58413;DHT22;44209;52.952;6.790;2023-09-18T14:20:55;22.80;99.90
58413;DHT22;44209;52.952;6.790;2023-09-18T14:23:20;22.70;99.90
58413;DHT22;44209;52.952;6.790;2023-09-18T14:25:46;22.70;99.90
58413;DHT22;44209;52.952;6.790;2023-09-18T14:28:12;22.80;99.90
58413;DHT22;44209;52.952;6.790;2023-09-18T14:30:39;22.70;99.90
58413;DHT22;44209;52.952;6.790;2023-09-18T14:33:04;22.70;99.90
58413;DHT22;44209;52.952;6.790;2023-09-18T14:35:30;22.70;99.90
58413;DHT22;44209;52.952;6.790;2023-09-18T14:37:56;22.70;99.90
58413;DHT22;44209;52.952;6.790;2023-09-18T14:40:22;22.80;99.90
58413;DHT22;44209;52.952;6.790;2023-09-18T14:42:48;22.80;99.90
58413;DHT22;44209;52.952;6.790;2023-09-18T14:45:13;22.90;99.90
58413;DHT22;44209;52.952;6.790;2023-09-18T14:47:39;22.90;99.90
58413;DHT22;44209;52.952;6.790;2023-09-18T14:50:05;22.90;99.90
58413;DHT22;44209;52.952;6.790;2023-09-18T14:52:31;23.00;99.90
58413;DHT22;44209;52.952;6.790;2023-09-18T14:54:58;22.90;99.90
58413;DHT22;44209;52.952;6.790;2023-09-18T14:57:26;22.90;99.90
58413;DHT22;44209;52.952;6.790;2023-09-18T14:59:52;22.80;99.90
58413;DHT22;44209;52.952;6.790;2023-09-18T15:02:18;22.80;99.90
58413;DHT22;44209;52.952;6.790;2023-09-18T15:04:44;22.90;99.90
58413;DHT22;44209;52.952;6.790;2023-09-18T15:07:10;23.00;99.90
58413;DHT22;44209;52.952;6.790;2023-09-18T15:09:37;23.00;99.90
58413;DHT22;44209;52.952;6.790;2023-09-18T15:12:04;23.00;99.90
58413;DHT22;44209;52.952;6.790;2023-09-18T15:14:34;23.10;99.90
58413;DHT22;44209;52.952;6.790;2023-09-18T15:17:01;22.90;99.90
58413;DHT22;44209;52.952;6.790;2023-09-18T15:19:26;22.80;99.90
58413;DHT22;44209;52.952;6.790;2023-09-18T15:21:52;22.80;99.90
58413;DHT22;44209;52.952;6.790;2023-09-18T15:24:21;22.70;99.90
58413;DHT22;44209;52.952;6.790;2023-09-18T15:26:46;22.80;99.90
58413;DHT22;44209;52.952;6.790;2023-09-18T15:29:13;22.80;99.90
58413;DHT22;44209;52.952;6.790;2023-09-18T15:31:39;22.70;99.90
58413;DHT22;44209;52.952;6.790;2023-09-18T15:34:06;22.70;99.90
58413;DHT22;44209;52.952;6.790;2023-09-18T15:36:32;22.80;99.90
58413;DHT22;44209;52.952;6.790;2023-09-18T15:38:58;22.80;99.90
58413;DHT22;44209;52.952;6.790;2023-09-18T15:41:25;22.70;99.90
58413;DHT22;44209;52.952;6.790;2023-09-18T15:43:51;22.80;99.90